createdAt,value
2023-03-27T00:01:01.774Z,97512.63
2023-03-27T00:02:03.951Z,97516.13
2023-03-27T00:03:05.949Z,97519.59
2023-03-27T00:04:09.002Z,97522.31
2023-03-27T00:05:10.951Z,97528.78
2023-03-27T00:06:16.925Z,97529.59
2023-03-27T00:07:19.957Z,97530.69
2023-03-27T00:08:21.855Z,97531.47
2023-03-27T00:09:23.732Z,97533.38
2023-03-27T00:10:26.464Z,97541.94
2023-03-27T00:11:28.382Z,97539.56
2023-03-27T00:12:30.136Z,97543.84
2023-03-27T00:13:32.397Z,97538.47
2023-03-27T00:14:36.219Z,97548.13
2023-03-27T00:15:39.829Z,97547.81
2023-03-27T00:16:42.018Z,97557.00
2023-03-27T00:17:50.263Z,97545.91
2023-03-27T00:18:52.937Z,97554.63
2023-03-27T00:19:54.736Z,97553.50
2023-03-27T00:21:02.945Z,97559.91
2023-03-27T00:22:05.306Z,97570.78
2023-03-27T00:23:07.121Z,97568.09
2023-03-27T00:24:09.069Z,97569.34
2023-03-27T00:25:11.501Z,97569.66
2023-03-27T00:26:14.349Z,97568.88
2023-03-27T00:27:16.543Z,97578.53
2023-03-27T00:28:18.666Z,97578.53
2023-03-27T00:29:20.454Z,97579.16
2023-03-27T00:30:23.453Z,97580.75
2023-03-27T00:31:25.504Z,97585.34
2023-03-27T00:32:27.487Z,97594.22
2023-03-27T00:33:29.698Z,97586.94
2023-03-27T00:34:31.505Z,97592.31
2023-03-27T00:35:33.415Z,97593.41
2023-03-27T00:36:35.237Z,97597.53
2023-03-27T00:37:37.172Z,97603.97
2023-03-27T00:38:43.468Z,97604.50
2023-03-27T00:39:50.024Z,97614.97
2023-03-27T00:40:54.750Z,97613.38
2023-03-27T00:41:57.095Z,97607.19
2023-03-27T00:42:59.209Z,97626.03
2023-03-27T00:44:04.127Z,97617.44
2023-03-27T00:45:06.714Z,97617.44
2023-03-27T00:46:54.523Z,97623.03
2023-03-27T00:48:08.106Z,97634.22
2023-03-27T00:49:15.138Z,97640.50
2023-03-27T00:50:24.185Z,97633.03
2023-03-27T00:51:27.605Z,97636.28
2023-03-27T00:52:31.822Z,97642.19
2023-03-27T00:53:34.291Z,97644.09
2023-03-27T00:54:38.845Z,97642.50
2023-03-27T00:55:46.450Z,97649.50
2023-03-27T00:56:49.788Z,97648.97
2023-03-27T00:58:00.192Z,97653.78
2023-03-27T00:59:08.516Z,97651.38
2023-03-27T01:00:14.023Z,97648.19
2023-03-27T01:01:19.035Z,97648.69
2023-03-27T01:02:22.414Z,97655.97
2023-03-27T01:03:32.282Z,97663.75
2023-03-27T01:04:36.007Z,97662.75
2023-03-27T01:05:38.482Z,97656.56
2023-03-27T01:06:42.252Z,97665.91
2023-03-27T01:08:01.050Z,97663.53
2023-03-27T01:09:04.824Z,97674.81
2023-03-27T01:10:08.741Z,97675.09
2023-03-27T01:11:46.410Z,97677.09
2023-03-27T01:13:07.276Z,97684.88
2023-03-27T01:14:26.404Z,97687.88
2023-03-27T01:16:20.459Z,97697.16
2023-03-27T01:17:27.931Z,97696.56
2023-03-27T01:18:44.833Z,97698.75
2023-03-27T01:19:49.765Z,97698.22
2023-03-27T01:21:22.526Z,97697.66
2023-03-27T01:22:46.049Z,97700.03
2023-03-27T01:24:33.442Z,97705.44
2023-03-27T01:26:09.175Z,97703.34
2023-03-27T01:27:37.833Z,97699.84
2023-03-27T01:29:02.048Z,97703.63
2023-03-27T01:30:12.436Z,97712.63
2023-03-27T01:31:49.092Z,97712.00
2023-03-27T01:33:26.455Z,97723.09
2023-03-27T01:35:04.527Z,97715.00
2023-03-27T01:36:45.893Z,97713.09
2023-03-27T01:38:35.339Z,97726.56
2023-03-27T01:39:55.034Z,97734.47
2023-03-27T01:41:11.435Z,97731.97
2023-03-27T01:42:40.613Z,97734.78
2023-03-27T01:43:59.654Z,97740.72
2023-03-27T01:45:19.408Z,97736.97
2023-03-27T01:46:46.320Z,97745.25
2023-03-27T01:48:15.958Z,97751.13
2023-03-27T01:49:39.924Z,97752.03
2023-03-27T01:50:50.809Z,97752.91
2023-03-27T01:52:00.472Z,97755.09
2023-03-27T01:53:12.267Z,97758.91
2023-03-27T01:54:23.439Z,97762.38
2023-03-27T01:55:32.598Z,97757.00
2023-03-27T01:57:02.305Z,97761.69
2023-03-27T01:58:16.983Z,97764.16
2023-03-27T01:59:24.549Z,97771.75
2023-03-27T02:00:52.580Z,97778.03
2023-03-27T02:02:03.737Z,97783.63
2023-03-27T02:03:23.017Z,97777.34
2023-03-27T02:04:40.492Z,97779.53
2023-03-27T02:05:53.380Z,97779.84
2023-03-27T02:07:03.559Z,97787.91
2023-03-27T02:08:17.194Z,97796.47
2023-03-27T02:09:28.365Z,97795.97
2023-03-27T02:10:39.436Z,97795.19
2023-03-27T02:11:52.002Z,97796.28
2023-03-27T02:13:07.298Z,97799.16
2023-03-27T02:14:20.218Z,97798.69
2023-03-27T02:15:32.940Z,97809.16
2023-03-27T02:16:42.513Z,97805.16
2023-03-27T02:17:56.880Z,97807.56
2023-03-27T02:19:09.947Z,97813.72
2023-03-27T02:20:17.778Z,97820.81
2023-03-27T02:21:19.928Z,97831.09
2023-03-27T02:22:37.695Z,97832.69
2023-03-27T02:23:40.765Z,97831.09
2023-03-27T02:24:43.563Z,97824.91
2023-03-27T02:25:46.736Z,97840.75
2023-03-27T02:27:09.192Z,97834.47
2023-03-27T02:28:47.339Z,97842.47
2023-03-27T02:30:13.542Z,97839.78
2023-03-27T02:31:35.170Z,97841.25
2023-03-27T02:32:53.893Z,97842.84
2023-03-27T02:34:13.932Z,97860.84
2023-03-27T02:35:27.978Z,97849.84
2023-03-27T02:37:02.387Z,97859.31
2023-03-27T02:38:17.461Z,97861.69
2023-03-27T02:39:35.801Z,97870.88
2023-03-27T02:40:56.092Z,97872.47
2023-03-27T02:42:19.105Z,97888.03
2023-03-27T02:44:20.570Z,97892.84
2023-03-27T02:45:46.772Z,97901.00
2023-03-27T02:46:59.956Z,97900.00
2023-03-27T02:48:27.950Z,97900.19
2023-03-27T02:49:46.674Z,97902.38
2023-03-27T02:51:17.346Z,97915.66
2023-03-27T02:52:31.125Z,97923.44
2023-03-27T02:53:43.313Z,97925.63
2023-03-27T02:54:55.536Z,97923.72
2023-03-27T02:56:01.982Z,97939.38
2023-03-27T02:57:10.591Z,97930.47
2023-03-27T02:58:20.578Z,97936.69
2023-03-27T02:59:35.684Z,97939.66
2023-03-27T03:00:43.780Z,97948.03
2023-03-27T03:01:46.055Z,97949.91
2023-03-27T03:02:53.305Z,97948.31
2023-03-27T03:04:11.963Z,97956.84
2023-03-27T03:05:20.923Z,97960.91
2023-03-27T03:06:29.856Z,97957.50
2023-03-27T03:07:34.770Z,97962.28
2023-03-27T03:08:38.874Z,97964.97
2023-03-27T03:09:41.803Z,97965.06
2023-03-27T03:10:46.024Z,97976.03
2023-03-27T03:11:52.847Z,97973.84
2023-03-27T03:12:54.733Z,97977.13
2023-03-27T03:13:57.321Z,97979.03
2023-03-27T03:14:59.175Z,97982.53
2023-03-27T03:16:04.450Z,97989.50
2023-03-27T03:17:06.600Z,97986.81
2023-03-27T03:18:09.129Z,97993.28
2023-03-27T03:19:10.982Z,97992.50
2023-03-27T03:20:13.929Z,98004.34
2023-03-27T03:21:15.835Z,97997.88
2023-03-27T03:22:18.047Z,98012.13
2023-03-27T03:23:24.185Z,97998.38
2023-03-27T03:24:27.577Z,98002.16
2023-03-27T03:25:31.405Z,98008.66
2023-03-27T03:26:33.991Z,98012.94
2023-03-27T03:27:35.911Z,98008.34
2023-03-27T03:28:37.744Z,98018.31
2023-03-27T03:29:40.214Z,98021.81
2023-03-27T03:30:43.258Z,98020.22
2023-03-27T03:31:45.631Z,98032.88
2023-03-27T03:32:47.757Z,98028.00
2023-03-27T03:33:49.641Z,98030.97
2023-03-27T03:34:51.800Z,98043.34
2023-03-27T03:35:53.685Z,98039.84
2023-03-27T03:36:55.568Z,98039.06
2023-03-27T03:37:59.324Z,98041.44
2023-03-27T03:39:01.210Z,98039.06
2023-03-27T03:40:05.066Z,98053.81
2023-03-27T03:41:07.220Z,98049.22
2023-03-27T03:42:09.312Z,98044.94
2023-03-27T03:43:25.470Z,98056.50
2023-03-27T03:44:27.340Z,98054.13
2023-03-27T03:45:29.271Z,98043.03
2023-03-27T03:46:31.194Z,98059.78
2023-03-27T03:47:33.043Z,98056.31
2023-03-27T03:48:35.028Z,98061.69
2023-03-27T03:49:37.394Z,98058.19
2023-03-27T03:50:39.296Z,98070.84
2023-03-27T03:51:41.141Z,98072.44
2023-03-27T03:52:44.713Z,98075.94
2023-03-27T03:53:46.738Z,98079.44
2023-03-27T03:54:48.550Z,98074.34
2023-03-27T03:55:53.238Z,98078.94
2023-03-27T03:56:55.089Z,98080.81
2023-03-27T03:57:57.246Z,98080.31
2023-03-27T03:58:59.160Z,98090.50
2023-03-27T04:00:01.031Z,98091.88
2023-03-27T04:01:02.971Z,98088.41
2023-03-27T04:02:05.059Z,98101.84
2023-03-27T04:03:09.589Z,98099.66
2023-03-27T04:04:12.088Z,98104.81
2023-03-27T04:05:13.953Z,98112.88
2023-03-27T04:06:25.629Z,98107.50
2023-03-27T04:07:35.584Z,98113.19
2023-03-27T04:08:37.825Z,98118.56
2023-03-27T04:09:39.654Z,98122.34
2023-03-27T04:10:42.261Z,98126.44
2023-03-27T04:11:44.094Z,98126.94
2023-03-27T04:12:49.946Z,98136.59
2023-03-27T04:13:51.915Z,98134.22
2023-03-27T04:14:54.924Z,98136.91
2023-03-27T04:15:56.829Z,98135.00
2023-03-27T04:16:59.177Z,98146.06
2023-03-27T04:18:01.520Z,98148.47
2023-03-27T04:19:03.532Z,98156.53
2023-03-27T04:20:06.401Z,98154.94
2023-03-27T04:21:14.814Z,98161.13
2023-03-27T04:22:22.649Z,98160.03
2023-03-27T04:23:31.497Z,98163.81
2023-03-27T04:24:33.416Z,98168.09
2023-03-27T04:25:35.330Z,98167.31
2023-03-27T04:26:37.138Z,98179.16
2023-03-27T04:27:39.666Z,98175.38
2023-03-27T04:28:42.383Z,98179.97
2023-03-27T04:29:47.282Z,98185.06
2023-03-27T04:30:50.558Z,98177.78
2023-03-27T04:31:52.621Z,98187.47
2023-03-27T04:32:55.007Z,98190.44
2023-03-27T04:33:57.074Z,98185.06
2023-03-27T04:34:58.981Z,98193.94
2023-03-27T04:36:06.238Z,98192.03
2023-03-27T04:37:09.594Z,98200.91
2023-03-27T04:38:15.039Z,98201.72
2023-03-27T04:39:18.414Z,98206.31
2023-03-27T04:40:20.736Z,98204.41
2023-03-27T04:41:22.549Z,98207.41
2023-03-27T04:42:24.551Z,98209.00
2023-03-27T04:43:26.317Z,98204.41
2023-03-27T04:44:28.244Z,98206.31
2023-03-27T04:45:32.244Z,98209.28
2023-03-27T04:46:34.184Z,98213.31
2023-03-27T04:47:39.742Z,98215.72
2023-03-27T04:48:42.519Z,98222.19
2023-03-27T04:49:50.768Z,98222.19
2023-03-27T04:50:52.688Z,98224.88
2023-03-27T04:51:55.313Z,98222.44
2023-03-27T04:53:00.030Z,98232.16
2023-03-27T04:54:05.208Z,98240.22
2023-03-27T04:55:08.230Z,98241.03
2023-03-27T04:56:11.012Z,98240.22
2023-03-27T04:57:12.951Z,98250.16
2023-03-27T04:58:15.578Z,98249.38
2023-03-27T04:59:17.631Z,98248.31
2023-03-27T05:00:23.097Z,98253.41
2023-03-27T05:01:25.696Z,98252.59
2023-03-27T05:02:28.207Z,98259.06
2023-03-27T05:03:30.066Z,98258.00
2023-03-27T05:04:32.287Z,98267.16
2023-03-27T05:05:34.813Z,98259.59
2023-03-27T05:06:37.950Z,98272.78
2023-03-27T05:07:46.190Z,98273.56
2023-03-27T05:08:48.429Z,98278.16
2023-03-27T05:09:50.375Z,98280.84
2023-03-27T05:10:52.149Z,98284.09
2023-03-27T05:11:53.985Z,98296.47
2023-03-27T05:12:58.424Z,98291.09
2023-03-27T05:14:00.890Z,98291.91
2023-03-27T05:15:06.210Z,98292.19
2023-03-27T05:16:10.127Z,98301.88
2023-03-27T05:17:12.897Z,98305.66
2023-03-27T05:18:16.003Z,98300.53
2023-03-27T05:19:22.033Z,98311.03
2023-03-27T05:20:25.278Z,98319.09
2023-03-27T05:21:27.392Z,98323.69
2023-03-27T05:22:29.215Z,98325.53
2023-03-27T05:23:31.415Z,98330.72
2023-03-27T05:24:33.302Z,98329.31
2023-03-27T05:25:35.165Z,98335.81
2023-03-27T05:26:38.589Z,98338.50
2023-03-27T05:27:48.610Z,98349.22
2023-03-27T05:28:52.614Z,98347.91
2023-03-27T05:29:55.722Z,98345.47
2023-03-27T05:30:58.372Z,98350.88
2023-03-27T05:32:01.530Z,98357.63
2023-03-27T05:33:03.524Z,98364.59
2023-03-27T05:34:05.936Z,98369.47
2023-03-27T05:35:09.319Z,98366.50
2023-03-27T05:36:11.715Z,98364.09
2023-03-27T05:37:13.564Z,98370.00
2023-03-27T05:38:15.980Z,98370.00
2023-03-27T05:39:17.824Z,98368.69
2023-03-27T05:40:25.148Z,98368.38
2023-03-27T05:41:26.965Z,98375.66
2023-03-27T05:42:28.825Z,98382.13
2023-03-27T05:43:30.599Z,98386.72
2023-03-27T05:44:32.442Z,98382.94
2023-03-27T05:45:34.548Z,98383.75
2023-03-27T05:46:36.462Z,98385.63
2023-03-27T05:47:53.507Z,98383.72
2023-03-27T05:48:55.912Z,98394.50
2023-03-27T05:49:58.110Z,98402.88
2023-03-27T05:51:00.179Z,98398.28
2023-03-27T05:52:02.805Z,98405.84
2023-03-27T05:53:10.109Z,98407.16
2023-03-27T05:54:12.132Z,98414.44
2023-03-27T05:55:17.902Z,98409.63
2023-03-27T05:56:20.239Z,98416.63
2023-03-27T05:57:22.162Z,98421.19
2023-03-27T05:58:24.044Z,98419.31
2023-03-27T05:59:25.991Z,98425.78
2023-03-27T06:00:31.829Z,98424.19
2023-03-27T06:01:36.053Z,98419.59
2023-03-27T06:02:39.626Z,98426.88
2023-03-27T06:03:41.620Z,98427.66
2023-03-27T06:04:43.503Z,98429.56
2023-03-27T06:05:45.317Z,98431.16
2023-03-27T06:06:47.273Z,98437.34
2023-03-27T06:07:50.650Z,98434.66
2023-03-27T06:08:53.216Z,98433.06
2023-03-27T06:09:55.154Z,98434.66
2023-03-27T06:10:57.662Z,98437.34
2023-03-27T06:11:59.636Z,98444.63
2023-03-27T06:13:08.673Z,98447.53
2023-03-27T06:14:10.744Z,98457.50
2023-03-27T06:15:12.916Z,98458.31
2023-03-27T06:16:15.548Z,98461.28
2023-03-27T06:17:17.391Z,98466.66
2023-03-27T06:18:19.414Z,98466.66
2023-03-27T06:19:23.631Z,98469.09
2023-03-27T06:20:26.236Z,98469.38
2023-03-27T06:21:28.312Z,98470.97
2023-03-27T06:22:30.129Z,98472.56
2023-03-27T06:23:32.439Z,98476.88
2023-03-27T06:24:34.228Z,98484.44
2023-03-27T06:25:39.226Z,98491.41
2023-03-27T06:26:41.228Z,98486.03
2023-03-27T06:27:45.398Z,98496.50
2023-03-27T06:28:47.403Z,98497.59
2023-03-27T06:29:49.413Z,98487.63
2023-03-27T06:30:51.266Z,98501.91
2023-03-27T06:31:53.693Z,98498.13
2023-03-27T06:32:58.758Z,98500.00
2023-03-27T06:34:00.769Z,98496.50
2023-03-27T06:35:03.458Z,98507.00
2023-03-27T06:36:06.241Z,98504.31
2023-03-27T06:37:08.108Z,98507.00
2023-03-27T06:38:10.614Z,98505.69
2023-03-27T06:39:12.604Z,98503.78
2023-03-27T06:40:23.113Z,98507.00
2023-03-27T06:41:25.518Z,98505.09
2023-03-27T06:42:27.473Z,98510.50
2023-03-27T06:43:29.303Z,98510.78
2023-03-27T06:44:31.980Z,98517.78
2023-03-27T06:45:46.674Z,98519.34
2023-03-27T06:46:48.722Z,98529.09
2023-03-27T06:47:55.304Z,98528.00
2023-03-27T06:48:57.949Z,98536.34
2023-03-27T06:49:59.742Z,98528.53
2023-03-27T06:51:01.844Z,98535.28
2023-03-27T06:52:03.701Z,98535.53
2023-03-27T06:53:15.863Z,98534.72
2023-03-27T06:54:25.814Z,98543.34
2023-03-27T06:55:31.408Z,98542.25
2023-03-27T06:56:33.284Z,98548.72
2023-03-27T06:57:35.629Z,98547.38
2023-03-27T06:58:38.954Z,98546.28
2023-03-27T06:59:41.492Z,98550.88
2023-03-27T07:00:43.724Z,98556.00
2023-03-27T07:01:46.273Z,98560.31
2023-03-27T07:02:54.243Z,98562.72
2023-03-27T07:03:56.850Z,98564.09
2023-03-27T07:05:04.727Z,98572.97
2023-03-27T07:06:07.947Z,98579.66
2023-03-27T07:07:09.803Z,98584.25
2023-03-27T07:08:23.689Z,98584.25
2023-03-27T07:09:26.439Z,98588.84
2023-03-27T07:10:28.506Z,98584.53
2023-03-27T07:11:31.996Z,98593.69
2023-03-27T07:12:34.944Z,98597.44
2023-03-27T07:13:37.368Z,98599.88
2023-03-27T07:14:39.185Z,98605.00
2023-03-27T07:15:41.184Z,98602.28
2023-03-27T07:16:43.004Z,98598.00
2023-03-27T07:17:55.282Z,98609.81
2023-03-27T07:18:59.390Z,98603.91
2023-03-27T07:20:06.325Z,98605.50
2023-03-27T07:21:08.302Z,98606.31
2023-03-27T07:22:10.514Z,98603.09
2023-03-27T07:23:12.494Z,98610.38
2023-03-27T07:24:14.420Z,98606.59
2023-03-27T07:25:16.388Z,98607.69
2023-03-27T07:26:18.279Z,98613.59
2023-03-27T07:27:20.191Z,98621.94
2023-03-27T07:28:21.973Z,98614.97
2023-03-27T07:29:23.978Z,98621.66
2023-03-27T07:30:25.998Z,98621.16
2023-03-27T07:31:42.409Z,98615.75
2023-03-27T07:32:52.508Z,98632.16
2023-03-27T07:33:54.528Z,98624.06
2023-03-27T07:34:59.996Z,98627.06
2023-03-27T07:36:08.072Z,98629.19
2023-03-27T07:37:11.189Z,98632.44
2023-03-27T07:38:14.188Z,98629.75
2023-03-27T07:39:17.017Z,98632.16
2023-03-27T07:40:29.475Z,98637.81
2023-03-27T07:41:39.030Z,98628.38
2023-03-27T07:42:45.372Z,98634.56
2023-03-27T07:43:48.581Z,98634.03
2023-03-27T07:44:50.496Z,98640.75
2023-03-27T07:45:52.518Z,98640.75
2023-03-27T07:46:54.578Z,98651.00
2023-03-27T07:48:08.928Z,98654.47
2023-03-27T07:49:11.157Z,98652.31
2023-03-27T07:50:17.837Z,98656.63
2023-03-27T07:51:19.938Z,98661.50
2023-03-27T07:52:22.207Z,98657.19
2023-03-27T07:53:33.732Z,98653.94
2023-03-27T07:54:36.704Z,98653.94
2023-03-27T07:55:38.592Z,98663.09
2023-03-27T07:56:40.890Z,98656.09
2023-03-27T07:57:59.969Z,98661.50
2023-03-27T07:59:03.995Z,98661.78
2023-03-27T08:00:11.686Z,98658.56
2023-03-27T08:01:14.532Z,98653.72
2023-03-27T08:02:16.443Z,98663.94
2023-03-27T08:03:20.998Z,98664.75
2023-03-27T08:04:23.605Z,98662.63
2023-03-27T08:05:25.536Z,98673.66
2023-03-27T08:06:27.488Z,98675.56
2023-03-27T08:07:30.250Z,98672.06
2023-03-27T08:08:32.865Z,98670.97
2023-03-27T08:09:34.670Z,98685.53
2023-03-27T08:10:37.597Z,98692.25
2023-03-27T08:11:41.213Z,98688.22
2023-03-27T08:12:43.064Z,98690.66
2023-03-27T08:13:44.990Z,98692.53
2023-03-27T08:14:48.239Z,98693.34
2023-03-27T08:15:50.054Z,98693.34
2023-03-27T08:16:52.306Z,98698.44
2023-03-27T08:17:56.438Z,98700.88
2023-03-27T08:19:00.151Z,98700.63
2023-03-27T08:20:06.588Z,98702.22
2023-03-27T08:21:11.413Z,98708.41
2023-03-27T08:22:13.241Z,98704.41
2023-03-27T08:23:15.243Z,98708.97
2023-03-27T08:24:17.272Z,98709.78
2023-03-27T08:25:22.313Z,98708.16
2023-03-27T08:26:26.437Z,98705.47
2023-03-27T08:27:28.649Z,98710.88
2023-03-27T08:28:36.465Z,98716.78
2023-03-27T08:29:39.001Z,98715.97
2023-03-27T08:30:41.691Z,98726.22
2023-03-27T08:31:43.699Z,98727.28
2023-03-27T08:32:46.339Z,98726.47
2023-03-27T08:33:48.343Z,98723.25
2023-03-27T08:34:50.184Z,98725.97
2023-03-27T08:35:52.155Z,98724.06
2023-03-27T08:36:53.978Z,98725.97
2023-03-27T08:37:55.776Z,98723.50
2023-03-27T08:38:57.585Z,98727.84
2023-03-27T08:40:01.822Z,98724.88
2023-03-27T08:41:05.093Z,98724.06
2023-03-27T08:42:18.538Z,98731.59
2023-03-27T08:43:27.295Z,98730.50
2023-03-27T08:44:33.026Z,98731.31
2023-03-27T08:45:49.767Z,98728.06
2023-03-27T08:47:35.620Z,98729.94
2023-03-27T08:48:50.667Z,98742.03
2023-03-27T08:49:59.052Z,98745.56
2023-03-27T08:51:07.365Z,98750.16
2023-03-27T08:52:24.788Z,98755.81
2023-03-27T08:53:33.009Z,98751.75
2023-03-27T08:54:38.272Z,98748.81
2023-03-27T08:55:44.527Z,98751.22
2023-03-27T08:56:46.632Z,98748.28
2023-03-27T08:57:50.220Z,98752.28
2023-03-27T08:58:53.268Z,98758.78
2023-03-27T09:00:01.120Z,98755.00
2023-03-27T09:01:47.347Z,98754.19
2023-03-27T09:03:11.147Z,98763.06
2023-03-27T09:04:24.901Z,98757.69
2023-03-27T09:05:46.890Z,98764.94
2023-03-27T09:07:19.597Z,98758.19
2023-03-27T09:09:11.543Z,98761.94
2023-03-27T09:10:25.462Z,98763.06
2023-03-27T09:11:42.571Z,98771.41
2023-03-27T09:12:58.822Z,98769.78
2023-03-27T09:14:09.132Z,98778.13
2023-03-27T09:15:22.411Z,98780.56
2023-03-27T09:16:49.239Z,98781.34
2023-03-27T09:18:07.358Z,98780.81
2023-03-27T09:19:59.874Z,98790.75
2023-03-27T09:21:37.012Z,98782.13
2023-03-27T09:22:45.260Z,98787.78
2023-03-27T09:23:48.442Z,98787.00
2023-03-27T09:24:56.407Z,98789.16
2023-03-27T09:26:12.775Z,98792.38
2023-03-27T09:27:32.562Z,98794.25
2023-03-27T09:28:56.057Z,98795.88
2023-03-27T09:30:14.940Z,98801.22
2023-03-27T09:31:29.005Z,98798.28
2023-03-27T09:32:33.953Z,98799.38
2023-03-27T09:33:41.320Z,98805.56
2023-03-27T09:34:44.932Z,98802.06
2023-03-27T09:35:46.957Z,98800.97
2023-03-27T09:36:49.586Z,98803.66
2023-03-27T09:37:59.588Z,98803.91
2023-03-27T09:39:12.447Z,98819.00
2023-03-27T09:40:44.690Z,98806.03
2023-03-27T09:41:55.416Z,98810.09
2023-03-27T09:43:09.136Z,98810.88
2023-03-27T09:44:20.994Z,98809.81
2023-03-27T09:45:23.226Z,98814.94
2023-03-27T09:46:27.246Z,98814.13
2023-03-27T09:47:45.182Z,98817.63
2023-03-27T09:48:59.924Z,98808.47
2023-03-27T09:50:28.685Z,98813.53
2023-03-27T09:51:48.708Z,98811.41
2023-03-27T09:52:52.267Z,98811.69
2023-03-27T09:53:58.680Z,98814.91
2023-03-27T09:55:00.641Z,98813.59
2023-03-27T09:56:12.694Z,98821.38
2023-03-27T09:57:14.676Z,98813.03
2023-03-27T09:58:43.973Z,98820.03
2023-03-27T10:00:13.102Z,98829.16
2023-03-27T10:01:29.231Z,98819.19
2023-03-27T10:02:31.706Z,98819.22
2023-03-27T10:03:39.210Z,98815.44
2023-03-27T10:05:02.441Z,98819.47
2023-03-27T10:06:13.821Z,98820.00
2023-03-27T10:07:26.655Z,98820.81
2023-03-27T10:08:41.973Z,98822.44
2023-03-27T10:09:43.795Z,98822.16
2023-03-27T10:10:56.096Z,98822.97
2023-03-27T10:12:07.599Z,98823.50
2023-03-27T10:13:14.196Z,98829.44
2023-03-27T10:14:21.332Z,98824.03
2023-03-27T10:15:36.999Z,98823.75
2023-03-27T10:16:42.193Z,98826.22
2023-03-27T10:17:49.106Z,98829.72
2023-03-27T10:18:55.916Z,98831.03
2023-03-27T10:20:17.474Z,98833.44
2023-03-27T10:21:42.743Z,98836.38
2023-03-27T10:23:00.425Z,98837.47
2023-03-27T10:24:19.956Z,98828.81
2023-03-27T10:25:32.068Z,98833.69
2023-03-27T10:26:37.912Z,98840.16
2023-03-27T10:27:43.543Z,98840.72
2023-03-27T10:28:52.365Z,98838.56
2023-03-27T10:29:54.179Z,98839.63
2023-03-27T10:31:01.924Z,98837.47
2023-03-27T10:32:06.155Z,98849.84
2023-03-27T10:33:08.096Z,98846.63
2023-03-27T10:34:32.671Z,98847.13
2023-03-27T10:35:39.696Z,98852.50
2023-03-27T10:36:47.282Z,98847.94
2023-03-27T10:37:51.413Z,98850.09
2023-03-27T10:39:04.956Z,98848.50
2023-03-27T10:40:16.152Z,98848.22
2023-03-27T10:41:28.027Z,98850.09
2023-03-27T10:42:32.877Z,98850.91
2023-03-27T10:43:41.310Z,98840.94
2023-03-27T10:44:47.376Z,98843.09
2023-03-27T10:46:11.603Z,98845.47
2023-03-27T10:47:22.702Z,98846.81
2023-03-27T10:49:17.412Z,98837.84
2023-03-27T10:50:29.903Z,98845.47
2023-03-27T10:52:16.414Z,98852.94
2023-03-27T10:53:33.243Z,98854.59
2023-03-27T10:55:01.594Z,98855.41
2023-03-27T10:56:13.142Z,98857.06
2023-03-27T10:57:34.152Z,98849.22
2023-03-27T10:58:49.346Z,98854.88
2023-03-27T11:00:18.593Z,98853.75
2023-03-27T11:01:34.631Z,98844.63
2023-03-27T11:03:21.713Z,98849.19
2023-03-27T11:04:36.176Z,98847.03
2023-03-27T11:05:44.522Z,98845.44
2023-03-27T11:06:50.719Z,98854.59
2023-03-27T11:08:09.091Z,98851.06
2023-03-27T11:09:23.338Z,98848.13
2023-03-27T11:10:47.573Z,98844.28
2023-03-27T11:12:08.045Z,98853.75
2023-03-27T11:13:33.366Z,98841.88
2023-03-27T11:15:18.075Z,98846.69
2023-03-27T11:16:53.879Z,98848.06
2023-03-27T11:18:17.850Z,98848.88
2023-03-27T11:19:55.955Z,98835.63
2023-03-27T11:21:04.662Z,98849.94
2023-03-27T11:22:15.153Z,98853.97
2023-03-27T11:23:32.790Z,98857.22
2023-03-27T11:25:00.595Z,98848.03
2023-03-27T11:26:07.240Z,98850.19
2023-03-27T11:27:28.157Z,98851.28
2023-03-27T11:28:43.562Z,98868.25
2023-03-27T11:30:27.545Z,98869.84
2023-03-27T11:31:46.331Z,98870.94
2023-03-27T11:33:07.497Z,98877.44
2023-03-27T11:34:29.136Z,98882.81
2023-03-27T11:35:44.124Z,98883.34
2023-03-27T11:37:23.818Z,98885.97
2023-03-27T11:38:35.405Z,98893.88
2023-03-27T11:40:20.227Z,98888.97
2023-03-27T11:41:22.092Z,98881.72
2023-03-27T11:42:32.346Z,98886.84
2023-03-27T11:43:38.981Z,98882.53
2023-03-27T11:44:41.841Z,98890.91
2023-03-27T11:46:08.122Z,98884.09
2023-03-27T11:47:36.840Z,98880.56
2023-03-27T11:48:50.828Z,98891.66
2023-03-27T11:50:31.770Z,98892.44
2023-03-27T11:52:06.966Z,98891.59
2023-03-27T11:53:22.540Z,98892.47
2023-03-27T11:54:45.631Z,98879.50
2023-03-27T11:56:07.609Z,98885.97
2023-03-27T11:57:58.985Z,98891.84
2023-03-27T11:59:57.290Z,98887.00
2023-03-27T12:01:26.990Z,98892.75
2023-03-27T12:03:12.600Z,98879.19
2023-03-27T12:04:49.998Z,98879.50
2023-03-27T12:06:09.244Z,98880.84
2023-03-27T12:07:53.890Z,98885.41
2023-03-27T12:09:11.637Z,98882.47
2023-03-27T12:10:42.478Z,98876.50
2023-03-27T12:11:54.928Z,98887.88
2023-03-27T12:13:24.312Z,98885.41
2023-03-27T12:14:52.466Z,98873.81
2023-03-27T12:16:19.203Z,98875.72
2023-03-27T12:17:28.235Z,98883.56
2023-03-27T12:19:02.105Z,98893.56
2023-03-27T12:20:27.458Z,98890.84
2023-03-27T12:22:22.739Z,98889.16
2023-03-27T12:23:52.241Z,98887.81
2023-03-27T12:25:36.194Z,98890.50
2023-03-27T12:27:05.219Z,98888.63
2023-03-27T12:28:23.911Z,98893.78
2023-03-27T12:29:42.179Z,98893.25
2023-03-27T12:30:47.596Z,98888.97
2023-03-27T12:32:01.820Z,98895.16
2023-03-27T12:33:27.525Z,98906.19
2023-03-27T12:34:54.494Z,98900.50
2023-03-27T12:36:03.023Z,98906.47
2023-03-27T12:37:10.886Z,98901.38
2023-03-27T12:38:32.542Z,98906.75
2023-03-27T12:39:59.157Z,98908.88
2023-03-27T12:41:13.838Z,98911.63
2023-03-27T12:43:04.199Z,98922.88
2023-03-27T12:44:06.840Z,98922.66
2023-03-27T12:45:22.188Z,98930.50
2023-03-27T12:46:24.102Z,98941.03
2023-03-27T12:47:26.214Z,98945.09
2023-03-27T12:48:28.097Z,98951.56
2023-03-27T12:49:48.439Z,98942.91
2023-03-27T12:50:56.828Z,98962.31
2023-03-27T12:52:04.695Z,98957.19
2023-03-27T12:53:06.615Z,98962.88
2023-03-27T12:54:14.396Z,98966.09
2023-03-27T12:55:17.705Z,98962.63
2023-03-27T12:56:19.624Z,98962.34
2023-03-27T12:57:22.805Z,98967.75
2023-03-27T12:58:35.043Z,98959.63
2023-03-27T13:00:10.355Z,98962.03
2023-03-27T13:01:34.212Z,98964.19
2023-03-27T13:03:14.428Z,98957.44
2023-03-27T13:04:51.315Z,98961.75
2023-03-27T13:06:08.193Z,98959.09
2023-03-27T13:07:52.239Z,98964.44
2023-03-27T13:09:22.150Z,98961.22
2023-03-27T13:10:53.448Z,98961.50
2023-03-27T13:12:42.460Z,98959.63
2023-03-27T13:14:18.079Z,98960.94
2023-03-27T13:15:43.063Z,98964.72
2023-03-27T13:17:41.966Z,98969.56
2023-03-27T13:19:23.119Z,98967.19
2023-03-27T13:20:49.766Z,98965.56
2023-03-27T13:22:12.663Z,98964.72
2023-03-27T13:23:51.697Z,98975.50
2023-03-27T13:25:23.729Z,98969.88
2023-03-27T13:26:39.039Z,98973.94
2023-03-27T13:27:46.521Z,98966.69
2023-03-27T13:28:53.020Z,98973.69
2023-03-27T13:29:56.109Z,98969.94
2023-03-27T13:31:00.053Z,98969.66
2023-03-27T13:32:30.827Z,98973.09
2023-03-27T13:33:45.861Z,98968.56
2023-03-27T13:35:21.369Z,98969.59
2023-03-27T13:36:24.596Z,98971.25
2023-03-27T13:37:36.869Z,98966.94
2023-03-27T13:39:05.998Z,98972.00
2023-03-27T13:40:47.558Z,98971.72
2023-03-27T13:42:02.536Z,98970.69
2023-03-27T13:43:15.621Z,98973.91
2023-03-27T13:44:39.755Z,98975.00
2023-03-27T13:45:52.817Z,98970.94
2023-03-27T13:47:33.502Z,98971.97
2023-03-27T13:48:50.359Z,98959.34
2023-03-27T13:50:15.402Z,98964.66
2023-03-27T13:52:14.498Z,98971.63